createdAt,value
2017-12-24T00:00:02.416Z,53.10
2017-12-24T00:05:05.747Z,53.10
2017-12-24T00:10:09.148Z,53.00
2017-12-24T00:15:11.816Z,53.10
2017-12-24T00:20:14.435Z,53.10
2017-12-24T00:25:17.013Z,53.70
2017-12-24T00:30:19.593Z,53.10
2017-12-24T00:35:22.155Z,53.10
2017-12-24T00:40:24.765Z,53.10
2017-12-24T00:45:27.375Z,53.10
2017-12-24T00:50:30.016Z,53.10
2017-12-24T00:55:33.362Z,53.10
2017-12-24T01:00:36.824Z,53.10
2017-12-24T01:05:39.489Z,53.10
2017-12-24T01:10:42.071Z,53.10
2017-12-24T01:15:44.676Z,53.10
2017-12-24T01:20:47.302Z,53.10
2017-12-24T01:25:50.446Z,53.10
2017-12-24T01:30:53.031Z,53.10
2017-12-24T01:35:55.666Z,53.10
2017-12-24T01:40:59.214Z,53.10
2017-12-24T01:46:01.843Z,53.60
2017-12-24T01:51:04.518Z,53.10
2017-12-24T01:56:07.162Z,53.10
2017-12-24T02:01:09.801Z,53.10
2017-12-24T02:06:12.444Z,53.00
2017-12-24T02:11:15.223Z,53.10
2017-12-24T02:16:17.876Z,53.10
2017-12-24T02:21:21.308Z,53.10
2017-12-24T02:26:23.944Z,53.10
2017-12-24T02:31:26.499Z,53.10
2017-12-24T02:36:29.858Z,53.10
2017-12-24T02:41:32.525Z,53.10
2017-12-24T02:46:35.266Z,53.10
2017-12-24T02:51:37.890Z,53.10
2017-12-24T02:56:40.550Z,53.10
2017-12-24T03:01:43.140Z,53.20
2017-12-24T03:06:45.757Z,53.10
2017-12-24T03:11:48.400Z,53.10
2017-12-24T03:16:51.025Z,53.10
2017-12-24T03:21:53.619Z,53.10
2017-12-24T03:26:56.244Z,53.10
2017-12-24T03:31:58.892Z,53.10
2017-12-24T03:37:01.583Z,53.10
2017-12-24T03:42:05.023Z,53.10
2017-12-24T03:47:07.617Z,53.10
2017-12-24T03:52:10.210Z,53.00
2017-12-24T03:57:12.832Z,53.10
2017-12-24T04:02:15.451Z,53.10
2017-12-24T04:07:18.636Z,53.10
2017-12-24T04:12:21.263Z,53.00
2017-12-24T04:17:23.854Z,53.00
2017-12-24T04:22:26.453Z,53.10
2017-12-24T04:27:29.075Z,53.00
2017-12-24T04:32:32.497Z,53.00
2017-12-24T04:37:35.091Z,53.00
2017-12-24T04:42:37.712Z,53.00
2017-12-24T04:47:40.297Z,53.00
2017-12-24T04:52:43.217Z,53.00
2017-12-24T04:57:46.583Z,53.00
2017-12-24T05:02:50.013Z,53.00
2017-12-24T05:07:52.629Z,53.00
2017-12-24T05:12:55.241Z,53.00
2017-12-24T05:17:58.098Z,53.00
2017-12-24T05:23:00.779Z,53.00
2017-12-24T05:28:03.395Z,53.00
2017-12-24T05:33:06.021Z,53.00
2017-12-24T05:38:08.592Z,53.00
2017-12-24T05:43:12.031Z,53.00
2017-12-24T05:48:14.597Z,53.00
2017-12-24T05:53:17.163Z,53.00
2017-12-24T05:58:19.738Z,52.90
2017-12-24T06:03:22.911Z,53.00
2017-12-24T06:08:25.511Z,53.00
2017-12-24T06:13:28.120Z,53.00
2017-12-24T06:18:31.389Z,53.00
2017-12-24T06:23:34.603Z,53.00
2017-12-24T06:28:37.545Z,53.00
2017-12-24T06:33:40.148Z,53.60
2017-12-24T06:38:42.828Z,53.00
2017-12-24T06:43:45.431Z,53.00
2017-12-24T06:48:48.055Z,53.00
2017-12-24T06:53:51.064Z,52.90
2017-12-24T06:58:53.864Z,53.00
2017-12-24T07:03:56.589Z,52.90
2017-12-24T07:08:59.272Z,52.90
2017-12-24T07:14:01.919Z,52.90
2017-12-24T07:19:04.883Z,53.00
2017-12-24T07:24:07.579Z,52.90
2017-12-24T07:29:10.988Z,52.90
2017-12-24T07:34:14.407Z,53.00
2017-12-24T07:39:17.298Z,52.90
2017-12-24T07:44:20.713Z,52.90
2017-12-24T07:49:24.239Z,52.90
2017-12-24T07:54:26.991Z,52.90
2017-12-24T07:59:29.584Z,52.90
2017-12-24T08:04:32.145Z,53.00
2017-12-24T08:09:34.730Z,52.90
2017-12-24T08:14:37.725Z,52.90
2017-12-24T08:19:40.792Z,52.90
2017-12-24T08:24:43.461Z,53.00
2017-12-24T08:29:46.147Z,52.80
2017-12-24T08:34:48.793Z,52.90
2017-12-24T08:39:51.447Z,52.90
2017-12-24T08:44:54.086Z,52.90
2017-12-24T08:49:56.660Z,52.90
2017-12-24T08:54:59.305Z,52.90
2017-12-24T09:00:01.920Z,52.90
2017-12-24T09:05:04.532Z,52.80
2017-12-24T09:10:07.131Z,52.80
2017-12-24T09:15:09.719Z,52.80
2017-12-24T09:20:12.360Z,52.80
2017-12-24T09:25:15.713Z,52.80
2017-12-24T09:30:18.296Z,52.80
2017-12-24T09:35:20.890Z,52.80
2017-12-24T09:40:23.508Z,52.70
2017-12-24T09:45:26.155Z,52.70
2017-12-24T09:50:29.487Z,52.80
2017-12-24T09:55:32.212Z,52.80
2017-12-24T10:00:34.810Z,52.70
2017-12-24T10:05:38.199Z,52.60
2017-12-24T10:10:40.827Z,52.70
2017-12-24T10:15:45.150Z,52.80
2017-12-24T10:20:47.816Z,52.80
2017-12-24T10:30:59.534Z,52.60
2017-12-24T10:36:02.967Z,52.60
2017-12-24T10:41:06.578Z,52.50
2017-12-24T10:46:09.160Z,52.50
2017-12-24T10:51:11.796Z,52.50
2017-12-24T10:56:14.403Z,52.50
2017-12-24T11:01:17.012Z,52.40
2017-12-24T11:06:19.603Z,52.50
2017-12-24T11:11:23.283Z,52.50
2017-12-24T11:16:25.915Z,52.50
2017-12-24T11:21:28.650Z,52.40
2017-12-24T11:26:32.037Z,52.50
2017-12-24T11:31:34.734Z,52.40
2017-12-24T11:36:37.452Z,52.50
2017-12-24T11:41:42.359Z,52.60
2017-12-24T11:46:45.934Z,52.50
2017-12-24T11:51:49.928Z,52.40
2017-12-24T11:56:52.551Z,52.50
2017-12-24T12:01:55.199Z,53.10
2017-12-24T12:06:57.908Z,52.50
2017-12-24T12:12:00.508Z,52.50
2017-12-24T12:17:03.170Z,52.50
2017-12-24T12:22:05.859Z,52.50
2017-12-24T12:27:09.687Z,52.30
2017-12-24T12:32:12.318Z,52.30
2017-12-24T12:37:15.010Z,52.40
2017-12-24T12:42:17.717Z,52.50
2017-12-24T12:47:20.339Z,52.50
2017-12-24T12:52:23.406Z,52.50
2017-12-24T12:57:26.019Z,52.40
2017-12-24T13:02:28.692Z,52.30
2017-12-24T13:07:31.293Z,52.30
2017-12-24T13:12:34.033Z,52.40
2017-12-24T13:17:37.724Z,52.30
2017-12-24T13:22:40.617Z,52.40
2017-12-24T13:27:43.836Z,52.30
2017-12-24T13:32:46.508Z,52.40
2017-12-24T13:37:49.437Z,52.40
2017-12-24T13:42:52.146Z,52.30
2017-12-24T13:47:54.780Z,52.30
2017-12-24T13:52:57.468Z,52.30
2017-12-24T13:58:01.614Z,52.30
2017-12-24T14:03:04.193Z,52.30
2017-12-24T14:08:07.587Z,52.40
2017-12-24T14:13:10.193Z,52.40
2017-12-24T14:18:12.771Z,52.50
2017-12-24T14:23:15.467Z,52.50
2017-12-24T14:28:18.040Z,52.50
2017-12-24T14:33:20.609Z,52.30
2017-12-24T14:38:24.014Z,52.50
2017-12-24T14:43:26.822Z,52.40
2017-12-24T14:48:29.831Z,52.60
2017-12-24T14:53:33.404Z,52.60
2017-12-24T14:58:36.012Z,52.50
2017-12-24T15:03:38.612Z,52.50
2017-12-24T15:08:41.270Z,52.60
2017-12-24T15:13:43.873Z,52.60
2017-12-24T15:18:46.446Z,52.50
2017-12-24T15:23:49.089Z,52.60
2017-12-24T15:28:51.841Z,52.50
2017-12-24T15:33:54.506Z,52.60
2017-12-24T15:38:57.101Z,52.40
2017-12-24T15:44:00.050Z,52.60
2017-12-24T15:49:02.915Z,52.60
2017-12-24T15:54:05.561Z,52.60
2017-12-24T15:59:08.203Z,52.60
2017-12-24T16:04:11.627Z,52.60
2017-12-24T16:09:14.278Z,52.60
2017-12-24T16:14:16.867Z,52.60
2017-12-24T16:19:19.487Z,52.60
2017-12-24T16:24:22.871Z,52.60
2017-12-24T16:29:25.441Z,52.60
2017-12-24T16:34:28.082Z,52.60
2017-12-24T16:39:30.670Z,52.60
2017-12-24T16:44:33.578Z,52.60
2017-12-24T16:49:37.015Z,52.60
2017-12-24T16:54:39.718Z,52.50
2017-12-24T16:59:42.583Z,52.60
2017-12-24T17:04:45.473Z,52.50
2017-12-24T17:09:48.123Z,52.60
2017-12-24T17:14:50.795Z,52.60
2017-12-24T17:19:55.008Z,52.60
2017-12-24T17:24:57.664Z,52.60
2017-12-24T17:30:00.300Z,52.60
2017-12-24T17:35:02.866Z,52.60
2017-12-24T17:40:05.698Z,52.60
2017-12-24T17:45:08.380Z,52.60
2017-12-24T17:50:10.995Z,52.60
2017-12-24T17:55:14.450Z,52.70
2017-12-24T18:00:19.404Z,52.60
2017-12-24T18:05:22.002Z,52.60
2017-12-24T18:10:25.089Z,52.60
2017-12-24T18:15:27.747Z,52.60
2017-12-24T18:20:30.379Z,52.60
2017-12-24T18:25:33.726Z,52.60
2017-12-24T18:30:36.295Z,52.60
2017-12-24T18:35:39.738Z,52.60
2017-12-24T18:40:43.330Z,52.60
2017-12-24T18:45:46.408Z,52.60
2017-12-24T18:50:50.126Z,52.70
2017-12-24T18:55:52.793Z,52.60
2017-12-24T19:00:57.393Z,52.60
2017-12-24T19:06:00.057Z,52.60
2017-12-24T19:11:02.758Z,52.60
2017-12-24T19:16:05.354Z,52.70
2017-12-24T19:21:08.768Z,53.20
2017-12-24T19:26:11.397Z,52.60
2017-12-24T19:31:14.003Z,52.60
2017-12-24T19:36:16.803Z,52.60
2017-12-24T19:41:19.423Z,52.60
2017-12-24T19:46:23.606Z,52.60
2017-12-24T19:51:26.189Z,52.60
2017-12-24T19:56:28.820Z,52.60
2017-12-24T20:01:31.401Z,52.60
2017-12-24T20:06:33.980Z,52.60
2017-12-24T20:11:37.614Z,52.70
2017-12-24T20:16:40.199Z,52.70
2017-12-24T20:21:43.739Z,52.70
2017-12-24T20:26:46.326Z,52.60
2017-12-24T20:31:49.025Z,52.60
2017-12-24T20:36:51.667Z,52.60
2017-12-24T20:41:54.310Z,52.60
2017-12-24T20:46:57.020Z,52.60
2017-12-24T20:52:00.219Z,52.60
2017-12-24T20:57:02.835Z,52.60
2017-12-24T21:02:05.459Z,52.70
2017-12-24T21:07:08.091Z,52.70
2017-12-24T21:12:10.709Z,52.70
2017-12-24T21:17:14.025Z,52.70
2017-12-24T21:22:16.620Z,52.60
2017-12-24T21:27:19.209Z,52.60
2017-12-24T21:32:21.826Z,52.70
2017-12-24T21:37:24.413Z,52.60
2017-12-24T21:42:27.008Z,52.60
2017-12-24T21:47:29.612Z,52.60
2017-12-24T21:52:32.305Z,52.60
2017-12-24T21:57:34.971Z,52.50
2017-12-24T22:02:37.566Z,52.60
2017-12-24T22:07:40.186Z,52.60
2017-12-24T22:12:42.840Z,52.70
2017-12-24T22:17:45.435Z,52.60
2017-12-24T22:22:47.993Z,52.60
2017-12-24T22:27:52.094Z,52.60
2017-12-24T22:32:54.697Z,52.60
2017-12-24T22:37:57.280Z,52.60
2017-12-24T22:42:59.890Z,52.60
2017-12-24T22:48:02.452Z,52.60
2017-12-24T22:53:05.261Z,52.60
2017-12-24T22:58:07.866Z,52.60
2017-12-24T23:03:10.455Z,52.50
2017-12-24T23:08:13.381Z,52.60
2017-12-24T23:13:15.980Z,52.50
2017-12-24T23:18:18.546Z,52.60
2017-12-24T23:23:21.116Z,52.60
2017-12-24T23:28:23.716Z,53.20
2017-12-24T23:33:26.296Z,52.60
2017-12-24T23:38:28.927Z,52.60
2017-12-24T23:43:31.522Z,52.60
2017-12-24T23:48:34.136Z,52.60
2017-12-24T23:53:36.798Z,52.60
2017-12-24T23:58:39.376Z,52.60
